Aviation Digital Data Service (ADDS)

Output produced by METARs form (0153 UTC 29 August 2016)
found at http://www.aviationweather.gov/adds/metars/
 
KMDT 290056Z VRB03KT 10SM FEW060 FEW250 27/19 A3015 RMK AO2 SLP206 T02670189
KMDT 282356Z 16009KT 10SM FEW055 FEW250 28/19 A3012 RMK AO2 SLP198 T02830194 10322 20278 56012
KMDT 282256Z 14007KT 10SM SCT040 SCT250 29/18 A3013 RMK AO2 SLP202 T02890183
KMDT 282156Z 13008KT 10SM FEW060 SCT250 31/19 A3014 RMK AO2 SLP205 T03110194
KMDT 282056Z 13007KT 10SM FEW055 FEW250 32/18 A3016 RMK AO2 SLP210 T03170178 56020
KMDT 281956Z 14006KT 10SM FEW050 FEW250 32/18 A3016 RMK AO2 SLP212 T03170178
KMDT 281856Z 14007KT 10SM FEW060 FEW250 32/18 A3020 RMK AO2 SLP224 T03170178
KMDT 281756Z 13006KT 10SM FEW055 FEW250 32/18 A3022 RMK AO2 SLP230 T03170183 10317 20228 57014
KMDT 281656Z 13006KT 10SM FEW045 FEW250 31/19 A3023 RMK AO2 SLP234 T03060194
KMDT 281556Z 12006KT 10SM FEW035 FEW250 29/21 A3025 RMK AO2 SLP240 T02890211 $
KMDT 281456Z 13005KT 10SM FEW030 FEW250 27/21 A3026 RMK AO2 SLP244 T02720211 58000
KMDT 281356Z 13004KT 10SM FEW025 FEW250 26/21 A3026 RMK AO2 SLP246 T02560211
KMDT 281256Z 13004KT 10SM CLR 24/21 A3026 RMK AO2 SLP245 T02390206
KMDT 281156Z 00000KT 8SM CLR 22/21 A3026 RMK AO2 SLP245 T02220206 10233 20206 51012
KMDT 281056Z 06003KT 7SM FEW020 FEW250 21/20 A3026 RMK AO2 SLP244 T02060200
KMDT 280956Z 00000KT 7SM CLR 21/20 A3024 RMK AO2 SLP240 T02110200
KMDT 280856Z 05003KT 9SM CLR 21/21 A3022 RMK AO2 SLP233 T02110206 53008
KMDT 280756Z 11006KT 10SM CLR 22/21 A3020 RMK AO2 SLP223 T02170206
KMDT 280656Z 07004KT 10SM CLR 22/20 A3020 RMK AO2 SLP224 T02220200
KMDT 280556Z 11007KT 10SM CLR 23/21 A3020 RMK AO2 SLP224 T02280206 10272 20222 53002
KMDT 280456Z 10005KT 10SM CLR 23/19 A3020 RMK AO2 SLP224 T02330194 403220211
KMDT 280356Z 00000KT 10SM CLR 24/20 A3019 RMK AO2 SLP222 T02440200
KMDT 280256Z 07003KT 10SM FEW250 25/21 A3019 RMK AO2 SLP222 T02500206 51012
KMDT 280156Z 00000KT 10SM FEW060 SCT250 26/21 A3019 RMK AO2 SLP222 T02560206
KMDT 280056Z 12004KT 9SM FEW060 BKN250 26/21 A3018 RMK AO2 SLP218 T02610211
KMDT 272356Z 00000KT 10SM FEW050 BKN250 27/22 A3016 RMK AO2 SLP210 T02720222 10322 20272 53004
KMDT 272256Z 00000KT 10SM FEW050 BKN250 29/23 A3014 RMK AO2 SLP205 T02940228
KMDT 272156Z 14004KT 10SM FEW050 BKN250 31/21 A3014 RMK AO2 SLP204 T03110206
KMDT 272056Z 14003KT 10SM FEW050 BKN250 31/19 A3014 RMK AO2 SLP206 T03110194 56011
KMDT 271956Z 14004KT 10SM FEW050 BKN250 32/21 A3015 RMK AO2 SLP207 T03170206
KMDT 271856Z 16003KT 10SM FEW050 BKN250 31/20 A3016 RMK AO2 SLP212 T03110200 $
KMDT 271756Z 16003KT 10SM FEW050 BKN230 31/20 A3018 RMK AO2 SLP217 T03060200 10311 20228 56007
KMDT 271656Z 00000KT 10SM FEW040 SCT200 BKN250 31/21 A3018 RMK AO2 SLP218 T03060211
KMDT 271556Z 00000KT 10SM BKN250 29/21 A3019 RMK AO2 SLP222 T02940206
KMDT 271456Z 08005KT 10SM BKN250 29/20 A3020 RMK AO2 SLP224 T02890200 50003
KMDT 271356Z VRB03KT 10SM BKN250 28/21 A3021 RMK AO2 SLP227 T02780206